createdAt,value
2023-04-15T00:01:03.912Z,97055.53
2023-04-15T00:06:05.651Z,97051.09
2023-04-15T00:11:07.207Z,97053.09
2023-04-15T00:16:09.314Z,97040.66
2023-04-15T00:21:10.921Z,97036.84
2023-04-15T00:26:12.768Z,97029.88
2023-04-15T00:31:14.485Z,97033.66
2023-04-15T00:36:16.074Z,97029.78
2023-04-15T00:41:19.359Z,97028.81
2023-04-15T00:46:21.537Z,97023.84
2023-04-15T00:51:23.554Z,97031.53
2023-04-15T00:56:27.160Z,97032.72
2023-04-15T01:01:29.347Z,97031.53
2023-04-15T01:06:32.384Z,97029.97
2023-04-15T01:11:34.840Z,97031.03
2023-04-15T01:16:39.814Z,97030.69
2023-04-15T01:21:41.671Z,97034.81
2023-04-15T01:26:44.587Z,97032.00
2023-04-15T01:31:53.866Z,97032.09
2023-04-15T01:36:55.657Z,97031.25
2023-04-15T01:41:57.571Z,97029.66
2023-04-15T01:46:59.357Z,97027.84
2023-04-15T01:52:00.959Z,97023.34
2023-04-15T01:57:02.543Z,97029.88
2023-04-15T02:02:04.787Z,97026.94
2023-04-15T02:07:07.339Z,97026.94
2023-04-15T02:12:09.461Z,97025.00
2023-04-15T02:17:11.192Z,97021.72
2023-04-15T02:22:18.383Z,97017.66
2023-04-15T02:27:20.233Z,97015.34
2023-04-15T02:32:24.447Z,97018.16
2023-04-15T02:37:28.691Z,97016.41
2023-04-15T02:42:31.941Z,97015.94
2023-04-15T02:47:34.988Z,97018.16
2023-04-15T02:52:36.604Z,97025.44
2023-04-15T02:57:39.356Z,97029.69
2023-04-15T03:02:42.360Z,97022.28
2023-04-15T03:07:44.113Z,97013.44
2023-04-15T03:12:45.792Z,97020.38
2023-04-15T03:17:49.491Z,97015.34
2023-04-15T03:22:51.314Z,97015.09
2023-04-15T03:27:53.046Z,97011.31
2023-04-15T03:32:54.776Z,97012.69
2023-04-15T03:37:56.404Z,97013.03
2023-04-15T03:42:57.941Z,97014.91
2023-04-15T03:48:11.407Z,97016.94
2023-04-15T03:53:18.008Z,97023.88
2023-04-15T03:58:19.672Z,97021.88
2023-04-15T04:03:21.552Z,97030.31
2023-04-15T04:08:23.605Z,97028.63
2023-04-15T04:13:25.394Z,97025.88
2023-04-15T04:18:27.030Z,97026.63
2023-04-15T04:23:28.712Z,97030.66
2023-04-15T04:28:30.268Z,97037.94
2023-04-15T04:33:31.850Z,97043.41
2023-04-15T04:38:33.459Z,97036.25
2023-04-15T04:43:35.086Z,97038.03
2023-04-15T04:48:36.962Z,97042.25
2023-04-15T04:53:38.549Z,97052.16
2023-04-15T04:58:40.175Z,97056.69
2023-04-15T05:03:41.936Z,97058.47
2023-04-15T05:08:43.647Z,97077.16
2023-04-15T05:13:45.457Z,97069.34
2023-04-15T05:18:47.141Z,97082.19
2023-04-15T05:23:48.718Z,97093.63
2023-04-15T05:28:50.484Z,97089.09
2023-04-15T05:33:52.103Z,97099.97
2023-04-15T05:38:54.249Z,97096.34
2023-04-15T05:43:56.360Z,97098.25
2023-04-15T05:48:58.001Z,97109.03
2023-04-15T05:53:59.584Z,97112.09
2023-04-15T05:59:01.844Z,97114.53
2023-04-15T06:04:03.762Z,97112.75
2023-04-15T06:09:06.315Z,97119.44
2023-04-15T06:14:08.360Z,97127.72
2023-04-15T06:19:09.938Z,97137.16
2023-04-15T06:24:12.049Z,97149.84
2023-04-15T06:29:13.699Z,97161.88
2023-04-15T06:34:15.282Z,97167.53
2023-04-15T06:39:17.094Z,97174.25
2023-04-15T06:44:18.832Z,97175.72
2023-04-15T06:49:20.381Z,97183.56
2023-04-15T06:54:22.059Z,97189.13
2023-04-15T06:59:24.222Z,97194.66
2023-04-15T07:04:25.881Z,97196.66
2023-04-15T07:09:27.543Z,97202.66
2023-04-15T07:14:29.576Z,97209.44
2023-04-15T07:19:31.288Z,97219.78
2023-04-15T07:24:32.879Z,97223.38
2023-04-15T07:29:34.468Z,97228.09
2023-04-15T07:34:36.561Z,97239.19
2023-04-15T07:39:38.181Z,97246.91
2023-04-15T07:44:39.826Z,97249.00
2023-04-15T07:49:41.987Z,97261.38
2023-04-15T07:54:43.620Z,97260.41
2023-04-15T07:59:45.604Z,97256.53
2023-04-15T08:04:47.939Z,97251.50
2023-04-15T08:09:49.709Z,97259.31
2023-04-15T08:14:52.253Z,97263.63
2023-04-15T08:19:54.249Z,97264.78
2023-04-15T08:24:55.856Z,97270.53
2023-04-15T08:29:57.478Z,97272.94
2023-04-15T08:34:59.310Z,97270.00
2023-04-15T08:40:01.025Z,97275.69
2023-04-15T08:45:05.330Z,97280.69
2023-04-15T08:50:09.832Z,97278.31
2023-04-15T08:55:13.784Z,97292.06
2023-04-15T09:00:15.985Z,97285.81
2023-04-15T09:05:17.774Z,97285.63
2023-04-15T09:10:19.409Z,97298.00
2023-04-15T09:15:21.359Z,97304.88
2023-04-15T09:20:23.190Z,97299.28
2023-04-15T09:25:29.146Z,97302.78
2023-04-15T09:30:31.389Z,97314.09
2023-04-15T09:35:33.174Z,97314.19
2023-04-15T09:40:37.308Z,97316.31
2023-04-15T09:45:38.999Z,97308.91
2023-04-15T09:50:44.280Z,97322.03
2023-04-15T09:55:49.759Z,97323.84
2023-04-15T10:00:52.960Z,97321.44
2023-04-15T10:05:57.278Z,97319.63
2023-04-15T10:11:00.818Z,97319.94
2023-04-15T10:16:14.489Z,97325.03
2023-04-15T10:21:18.768Z,97331.25
2023-04-15T10:26:20.934Z,97332.22
2023-04-15T10:31:23.464Z,97332.47
2023-04-15T10:36:25.506Z,97344.41
2023-04-15T10:41:31.296Z,97343.03
2023-04-15T10:46:38.723Z,97332.28
2023-04-15T10:51:43.215Z,97333.53
2023-04-15T10:56:45.576Z,97339.44
2023-04-15T11:02:00.711Z,97337.66
2023-04-15T11:07:06.837Z,97331.63
2023-04-15T11:12:10.010Z,97341.78
2023-04-15T11:17:11.775Z,97351.31
2023-04-15T11:22:13.525Z,97354.06
2023-04-15T11:27:23.437Z,97352.69
2023-04-15T11:32:25.073Z,97351.41
2023-04-15T11:37:30.420Z,97357.75
2023-04-15T11:42:46.464Z,97346.03
2023-04-15T11:47:51.027Z,97355.22
2023-04-15T11:52:57.286Z,97358.09
2023-04-15T11:58:11.427Z,97360.69
2023-04-15T12:03:13.936Z,97359.53
2023-04-15T12:08:15.673Z,97355.56
2023-04-15T12:13:17.507Z,97351.53
2023-04-15T12:18:19.875Z,97353.94
2023-04-15T12:23:21.689Z,97348.88
2023-04-15T12:28:23.292Z,97354.63
2023-04-15T12:33:33.717Z,97354.88
2023-04-15T12:38:35.591Z,97345.56
2023-04-15T12:43:37.748Z,97349.13
2023-04-15T12:48:40.628Z,97347.78
2023-04-15T12:53:42.325Z,97352.28
2023-04-15T12:58:43.956Z,97357.91
2023-04-15T13:03:45.860Z,97357.50
2023-04-15T13:08:57.170Z,97362.22
2023-04-15T13:14:02.384Z,97365.06
2023-04-15T13:19:04.419Z,97373.19
2023-04-15T13:24:07.475Z,97361.91
2023-04-15T13:29:09.423Z,97369.97
2023-04-15T13:34:11.249Z,97373.19
2023-04-15T13:39:12.881Z,97370.66
2023-04-15T13:44:14.778Z,97376.19
2023-04-15T13:49:16.428Z,97371.47
2023-04-15T13:54:18.129Z,97377.03
2023-04-15T13:59:19.712Z,97376.19
2023-04-15T14:04:21.582Z,97394.59
2023-04-15T14:09:26.289Z,97396.09
2023-04-15T14:14:28.091Z,97397.72
2023-04-15T14:19:31.323Z,97408.50
2023-04-15T14:24:33.116Z,97408.00
2023-04-15T14:29:34.914Z,97412.31
2023-04-15T14:34:36.668Z,97420.63
2023-04-15T14:39:38.450Z,97416.16
2023-04-15T14:44:40.025Z,97427.59
2023-04-15T14:49:41.705Z,97432.00
2023-04-15T14:54:43.708Z,97441.38
2023-04-15T14:59:45.614Z,97449.75
2023-04-15T15:04:47.423Z,97453.16
2023-04-15T15:09:49.084Z,97460.38
2023-04-15T15:14:50.989Z,97475.56
2023-04-15T15:19:53.262Z,97473.66
2023-04-15T15:24:55.087Z,97479.25
2023-04-15T15:29:56.908Z,97489.91
2023-04-15T15:34:58.635Z,97504.09
2023-04-15T15:40:00.992Z,97500.69
2023-04-15T15:45:04.516Z,97506.28
2023-04-15T15:50:07.759Z,97505.50
2023-04-15T15:55:12.201Z,97512.50
2023-04-15T16:00:14.440Z,97521.53
2023-04-15T16:05:16.239Z,97524.38
2023-04-15T16:10:17.803Z,97531.16
2023-04-15T16:15:19.512Z,97535.63
2023-04-15T16:20:21.121Z,97552.03
2023-04-15T16:25:22.957Z,97550.03
2023-04-15T16:30:24.796Z,97563.78
2023-04-15T16:35:26.750Z,97569.81
2023-04-15T16:40:28.522Z,97575.94
2023-04-15T16:45:30.573Z,97608.13
2023-04-15T16:50:32.798Z,97590.78
2023-04-15T16:55:34.585Z,97595.09
2023-04-15T17:00:37.006Z,97607.34
2023-04-15T17:05:39.266Z,97612.88
2023-04-15T17:10:41.673Z,97618.59
2023-04-15T17:15:43.460Z,97619.09
2023-04-15T17:20:45.106Z,97639.03
2023-04-15T17:25:48.308Z,97655.22
2023-04-15T17:30:50.391Z,97667.50
2023-04-15T17:35:52.396Z,97685.56
2023-04-15T17:40:54.422Z,97689.16
2023-04-15T17:45:58.499Z,97697.25
2023-04-15T17:51:00.478Z,97713.72
2023-04-15T17:56:03.228Z,97728.28
2023-04-15T18:01:05.455Z,97739.16
2023-04-15T18:06:07.926Z,97744.72
2023-04-15T18:11:12.597Z,97750.59
2023-04-15T18:16:15.073Z,97766.47
2023-04-15T18:21:17.341Z,97773.66
2023-04-15T18:26:19.832Z,97778.53
2023-04-15T18:31:21.692Z,97779.69
2023-04-15T18:36:24.517Z,97777.22
2023-04-15T18:41:26.857Z,97789.88
2023-04-15T18:46:29.328Z,97796.88
2023-04-15T18:51:34.621Z,97797.94
2023-04-15T18:56:36.955Z,97805.84
2023-04-15T19:01:39.398Z,97790.25
2023-04-15T19:06:41.443Z,97791.13
2023-04-15T19:11:44.309Z,97797.34
2023-04-15T19:16:46.549Z,97810.66
2023-04-15T19:21:55.028Z,97806.31
2023-04-15T19:26:58.238Z,97811.25
2023-04-15T19:32:00.980Z,97812.63
2023-04-15T19:37:03.368Z,97816.81
2023-04-15T19:42:05.854Z,97812.16
2023-04-15T19:47:08.414Z,97821.41
2023-04-15T19:52:10.597Z,97817.91
2023-04-15T19:57:13.700Z,97825.00
2023-04-15T20:02:15.846Z,97828.19
2023-04-15T20:07:18.696Z,97828.94
2023-04-15T20:12:49.871Z,97835.75
2023-04-15T20:17:44.779Z,97841.50
2023-04-15T20:22:47.182Z,97844.63
2023-04-15T20:27:49.466Z,97855.03
2023-04-15T20:32:52.034Z,97867.44
2023-04-15T20:37:54.915Z,97872.16
2023-04-15T20:42:56.694Z,97871.81
2023-04-15T20:47:58.787Z,97879.31
2023-04-15T20:53:00.779Z,97885.94
2023-04-15T20:58:02.549Z,97890.75
2023-04-15T21:03:04.363Z,97894.41
2023-04-15T21:08:07.719Z,97905.09
2023-04-15T21:13:09.803Z,97909.16
2023-04-15T21:18:11.436Z,97913.25
2023-04-15T21:23:13.359Z,97923.66
2023-04-15T21:28:15.015Z,97918.72
2023-04-15T21:33:17.836Z,97923.25
2023-04-15T21:38:21.324Z,97929.66
2023-04-15T21:43:25.806Z,97924.03
2023-04-15T21:48:27.417Z,97931.53
2023-04-15T21:53:29.002Z,97933.50
2023-04-15T21:58:30.611Z,97937.06
2023-04-15T22:03:34.423Z,97946.03
2023-04-15T22:08:48.135Z,97945.25
2023-04-15T22:13:54.789Z,97956.16
2023-04-15T22:18:56.493Z,97959.66
2023-04-15T22:24:31.688Z,97963.25
2023-04-15T22:29:20.898Z,97965.19
2023-04-15T22:34:23.008Z,97974.81
2023-04-15T22:39:24.586Z,97985.28
2023-04-15T22:44:26.239Z,97985.91
2023-04-15T22:49:27.856Z,97998.56
2023-04-15T22:54:29.417Z,98003.63
2023-04-15T22:59:30.977Z,98008.09
2023-04-15T23:04:32.704Z,98008.72
2023-04-15T23:09:34.465Z,98011.19
2023-04-15T23:14:36.012Z,98025.59
2023-04-15T23:19:37.564Z,98019.47
2023-04-15T23:24:39.144Z,98029.22
2023-04-15T23:29:40.896Z,98031.88
2023-04-15T23:34:42.495Z,98036.72
2023-04-15T23:39:44.503Z,98041.84
2023-04-15T23:44:46.515Z,98041.44
2023-04-15T23:49:48.158Z,98042.34
2023-04-15T23:54:49.718Z,98046.94
2023-04-15T23:59:51.308Z,98042.94
